sensor_id;sensor_type;location;lat;lon;timestamp;pressure;altitude;pressure_sealevel;temperature;humidity
63321;BME280;49449;48.800;9.534;2023-05-10T00:01:34;97886.84;;;15.03;47.79
63321;BME280;49449;48.800;9.534;2023-05-10T00:04:02;97894.47;;;15.14;47.71
63321;BME280;49449;48.800;9.534;2023-05-10T00:06:30;97900.03;;;15.23;47.46
63321;BME280;49449;48.800;9.534;2023-05-10T00:08:58;97892.56;;;15.30;47.58
63321;BME280;49449;48.800;9.534;2023-05-10T00:11:27;97892.00;;;15.39;47.41
63321;BME280;49449;48.800;9.534;2023-05-10T00:13:56;97888.78;;;15.42;47.86
63321;BME280;49449;48.800;9.534;2023-05-10T00:16:24;97889.03;;;15.45;47.56
63321;BME280;49449;48.800;9.534;2023-05-10T00:18:51;97888.53;;;15.43;47.69
63321;BME280;49449;48.800;9.534;2023-05-10T00:21:20;97883.44;;;15.47;47.73
63321;BME280;49449;48.800;9.534;2023-05-10T00:23:48;97877.84;;;15.48;47.48
63321;BME280;49449;48.800;9.534;2023-05-10T00:26:15;97887.94;;;15.46;47.35
63321;BME280;49449;48.800;9.534;2023-05-10T00:28:44;97887.44;;;15.44;47.80
63321;BME280;49449;48.800;9.534;2023-05-10T00:31:13;97896.19;;;15.50;47.76
63321;BME280;49449;48.800;9.534;2023-05-10T00:33:41;97895.69;;;15.43;48.00
63321;BME280;49449;48.800;9.534;2023-05-10T00:36:09;97913.50;;;15.47;47.64
63321;BME280;49449;48.800;9.534;2023-05-10T00:38:36;97914.03;;;15.49;47.37
63321;BME280;49449;48.800;9.534;2023-05-10T00:41:04;97915.66;;;15.45;46.99
63321;BME280;49449;48.800;9.534;2023-05-10T00:43:33;97921.03;;;15.35;46.83
63321;BME280;49449;48.800;9.534;2023-05-10T00:46:00;97920.25;;;15.29;46.99
63321;BME280;49449;48.800;9.534;2023-05-10T00:48:30;97924.81;;;15.19;47.01
63321;BME280;49449;48.800;9.534;2023-05-10T00:50:58;97925.56;;;15.24;47.07
63321;BME280;49449;48.800;9.534;2023-05-10T00:53:26;97932.78;;;15.29;46.93
63321;BME280;49449;48.800;9.534;2023-05-10T00:55:54;97925.84;;;15.28;46.71
63321;BME280;49449;48.800;9.534;2023-05-10T00:58:22;97933.56;;;15.29;46.52
63321;BME280;49449;48.800;9.534;2023-05-10T01:00:54;97937.53;;;15.22;46.80
63321;BME280;49449;48.800;9.534;2023-05-10T01:03:22;97934.38;;;15.20;46.39
63321;BME280;49449;48.800;9.534;2023-05-10T01:05:52;97935.72;;;15.12;46.46
63321;BME280;49449;48.800;9.534;2023-05-10T01:08:20;97936.25;;;15.14;46.55
63321;BME280;49449;48.800;9.534;2023-05-10T01:10:48;97938.63;;;15.21;46.67
63321;BME280;49449;48.800;9.534;2023-05-10T01:13:23;97941.03;;;15.22;46.60
63321;BME280;49449;48.800;9.534;2023-05-10T01:15:54;97938.63;;;15.21;46.13
63321;BME280;49449;48.800;9.534;2023-05-10T01:18:23;97939.69;;;15.20;46.47
63321;BME280;49449;48.800;9.534;2023-05-10T01:21:06;97949.81;;;15.18;46.50
63321;BME280;49449;48.800;9.534;2023-05-10T01:23:50;97949.03;;;15.17;46.38
63321;BME280;49449;48.800;9.534;2023-05-10T01:29:53;97946.16;;;14.98;46.92
63321;BME280;49449;48.800;9.534;2023-05-10T01:32:44;97949.84;;;15.02;46.39
63321;BME280;49449;48.800;9.534;2023-05-10T01:35:21;97949.31;;;15.05;46.41
63321;BME280;49449;48.800;9.534;2023-05-10T01:37:58;97950.66;;;15.03;46.22
63321;BME280;49449;48.800;9.534;2023-05-10T01:40:38;97957.03;;;15.07;46.25
63321;BME280;49449;48.800;9.534;2023-05-10T01:43:12;97959.44;;;15.03;46.52
63321;BME280;49449;48.800;9.534;2023-05-10T01:45:49;97966.38;;;14.94;46.11
63321;BME280;49449;48.800;9.534;2023-05-10T01:48:23;97970.94;;;14.88;46.47
63321;BME280;49449;48.800;9.534;2023-05-10T01:50:56;97965.56;;;14.93;46.36
63321;BME280;49449;48.800;9.534;2023-05-10T01:53:24;97978.09;;;14.88;46.31
63321;BME280;49449;48.800;9.534;2023-05-10T01:55:53;97961.06;;;14.89;45.76
63321;BME280;49449;48.800;9.534;2023-05-10T01:58:25;97967.72;;;14.86;46.24
63321;BME280;49449;48.800;9.534;2023-05-10T02:00:56;97977.56;;;14.86;46.17
63321;BME280;49449;48.800;9.534;2023-05-10T02:03:28;97975.94;;;14.90;45.97
63321;BME280;49449;48.800;9.534;2023-05-10T02:05:56;97979.16;;;14.87;45.85
63321;BME280;49449;48.800;9.534;2023-05-10T02:08:25;97981.00;;;14.86;45.55
63321;BME280;49449;48.800;9.534;2023-05-10T02:10:55;97981.56;;;14.83;45.91
63321;BME280;49449;48.800;9.534;2023-05-10T02:13:24;97983.41;;;14.83;45.55
63321;BME280;49449;48.800;9.534;2023-05-10T02:15:54;97991.66;;;14.81;45.79
63321;BME280;49449;48.800;9.534;2023-05-10T02:18:24;97990.88;;;14.75;45.88
63321;BME280;49449;48.800;9.534;2023-05-10T02:20:56;97995.94;;;14.77;45.28
63321;BME280;49449;48.800;9.534;2023-05-10T02:23:24;97990.09;;;14.80;45.53
63321;BME280;49449;48.800;9.534;2023-05-10T02:25:54;97993.00;;;14.78;45.42
63321;BME280;49449;48.800;9.534;2023-05-10T02:28:23;97994.34;;;14.76;45.47
63321;BME280;49449;48.800;9.534;2023-05-10T02:30:53;97997.00;;;14.61;45.61
63321;BME280;49449;48.800;9.534;2023-05-10T02:33:22;97990.09;;;14.59;45.89
63321;BME280;49449;48.800;9.534;2023-05-10T02:35:51;97997.81;;;14.61;45.69
63321;BME280;49449;48.800;9.534;2023-05-10T02:38:21;98003.13;;;14.51;46.23
63321;BME280;49449;48.800;9.534;2023-05-10T02:40:52;97998.31;;;14.43;46.18
63321;BME280;49449;48.800;9.534;2023-05-10T02:43:22;98008.41;;;14.30;46.42
63321;BME280;49449;48.800;9.534;2023-05-10T02:45:51;98007.88;;;14.33;46.44
63321;BME280;49449;48.800;9.534;2023-05-10T02:48:19;98003.63;;;14.22;46.76
63321;BME280;49449;48.800;9.534;2023-05-10T02:50:48;98007.06;;;14.02;46.80
63321;BME280;49449;48.800;9.534;2023-05-10T02:53:22;98016.34;;;14.05;46.77
63321;BME280;49449;48.800;9.534;2023-05-10T02:55:52;98013.69;;;14.05;46.73
63321;BME280;49449;48.800;9.534;2023-05-10T02:58:24;98015.78;;;13.97;46.86
63321;BME280;49449;48.800;9.534;2023-05-10T03:00:53;98009.97;;;14.00;46.83
63321;BME280;49449;48.800;9.534;2023-05-10T03:03:20;98011.81;;;14.05;46.62
63321;BME280;49449;48.800;9.534;2023-05-10T03:05:48;98024.56;;;14.08;46.53
63321;BME280;49449;48.800;9.534;2023-05-10T03:08:16;98019.78;;;14.00;46.86
63321;BME280;49449;48.800;9.534;2023-05-10T03:10:54;98015.78;;;13.97;46.73
63321;BME280;49449;48.800;9.534;2023-05-10T03:13:31;98021.38;;;14.01;46.65
63321;BME280;49449;48.800;9.534;2023-05-10T03:16:07;98018.22;;;14.04;46.90
63321;BME280;49449;48.800;9.534;2023-05-10T03:18:42;98022.72;;;14.14;46.66
63321;BME280;49449;48.800;9.534;2023-05-10T03:21:13;98020.59;;;14.16;46.59
63321;BME280;49449;48.800;9.534;2023-05-10T03:23:44;98019.53;;;14.12;46.98
63321;BME280;49449;48.800;9.534;2023-05-10T03:26:17;98023.53;;;14.14;47.09
63321;BME280;49449;48.800;9.534;2023-05-10T03:28:48;98021.66;;;14.10;46.86
63321;BME280;49449;48.800;9.534;2023-05-10T03:31:17;98022.72;;;14.14;47.04
63321;BME280;49449;48.800;9.534;2023-05-10T03:33:48;98028.03;;;14.19;46.77
63321;BME280;49449;48.800;9.534;2023-05-10T03:36:16;98029.91;;;14.18;46.94
63321;BME280;49449;48.800;9.534;2023-05-10T03:38:44;98029.91;;;14.13;47.26
63321;BME280;49449;48.800;9.534;2023-05-10T03:41:12;98033.88;;;14.16;46.83
63321;BME280;49449;48.800;9.534;2023-05-10T03:43:41;98036.25;;;14.12;46.72
63321;BME280;49449;48.800;9.534;2023-05-10T03:46:09;98037.91;;;14.24;46.62
63321;BME280;49449;48.800;9.534;2023-05-10T03:48:37;98034.16;;;14.30;46.49
63321;BME280;49449;48.800;9.534;2023-05-10T03:51:05;98038.44;;;14.36;46.39
63321;BME280;49449;48.800;9.534;2023-05-10T03:53:33;98032.59;;;14.39;46.84
63321;BME280;49449;48.800;9.534;2023-05-10T03:56:00;98038.72;;;14.39;46.80
63321;BME280;49449;48.800;9.534;2023-05-10T03:58:28;98034.44;;;14.38;46.87
63321;BME280;49449;48.800;9.534;2023-05-10T04:00:57;98045.34;;;14.32;47.05
63321;BME280;49449;48.800;9.534;2023-05-10T04:03:27;98032.59;;;14.34;46.76
63321;BME280;49449;48.800;9.534;2023-05-10T04:06:01;98029.13;;;14.28;46.84
63321;BME280;49449;48.800;9.534;2023-05-10T04:08:30;98028.84;;;14.30;46.94
63321;BME280;49449;48.800;9.534;2023-05-10T04:11:05;98033.38;;;14.34;46.96
63321;BME280;49449;48.800;9.534;2023-05-10T04:13:33;98029.66;;;14.40;46.65
63321;BME280;49449;48.800;9.534;2023-05-10T04:16:04;98037.66;;;14.30;46.38
63321;BME280;49449;48.800;9.534;2023-05-10T04:18:32;98036.28;;;14.23;46.86
63321;BME280;49449;48.800;9.534;2023-05-10T04:21:00;98038.69;;;14.29;46.52
63321;BME280;49449;48.800;9.534;2023-05-10T04:23:30;98040.31;;;14.30;46.69
63321;BME280;49449;48.800;9.534;2023-05-10T04:26:01;98041.63;;;14.33;46.41
63321;BME280;49449;48.800;9.534;2023-05-10T04:28:29;98034.97;;;14.25;46.32
63321;BME280;49449;48.800;9.534;2023-05-10T04:31:01;98035.78;;;14.31;46.26
63321;BME280;49449;48.800;9.534;2023-05-10T04:33:31;98043.50;;;14.37;46.54
63321;BME280;49449;48.800;9.534;2023-05-10T04:35:59;98048.81;;;14.32;46.22
63321;BME280;49449;48.800;9.534;2023-05-10T04:38:28;98046.16;;;14.32;46.78
63321;BME280;49449;48.800;9.534;2023-05-10T04:41:03;98049.88;;;14.36;46.60
63321;BME280;49449;48.800;9.534;2023-05-10T04:43:32;98042.94;;;14.40;46.33
63321;BME280;49449;48.800;9.534;2023-05-10T04:46:00;98048.81;;;14.43;46.33
63321;BME280;49449;48.800;9.534;2023-05-10T04:48:30;98041.16;;;14.46;46.28
63321;BME280;49449;48.800;9.534;2023-05-10T04:50:59;98052.78;;;14.45;46.61
63321;BME280;49449;48.800;9.534;2023-05-10T04:53:27;98057.09;;;14.51;46.67
63321;BME280;49449;48.800;9.534;2023-05-10T04:55:55;98049.66;;;14.58;46.65
63321;BME280;49449;48.800;9.534;2023-05-10T04:58:22;98052.56;;;14.62;46.53
63321;BME280;49449;48.800;9.534;2023-05-10T05:00:50;98052.84;;;14.66;46.21
63321;BME280;49449;48.800;9.534;2023-05-10T05:03:18;98056.03;;;14.68;46.47
63321;BME280;49449;48.800;9.534;2023-05-10T05:05:47;98059.75;;;14.72;46.13
63321;BME280;49449;48.800;9.534;2023-05-10T05:08:15;98066.66;;;14.73;46.16
63321;BME280;49449;48.800;9.534;2023-05-10T05:10:43;98061.88;;;14.75;45.89
63321;BME280;49449;48.800;9.534;2023-05-10T05:13:12;98062.94;;;14.79;45.97
63321;BME280;49449;48.800;9.534;2023-05-10T05:15:40;98068.78;;;14.81;45.96
63321;BME280;49449;48.800;9.534;2023-05-10T05:18:08;98067.47;;;14.84;46.07
63321;BME280;49449;48.800;9.534;2023-05-10T05:20:36;98077.00;;;14.85;46.11
63321;BME280;49449;48.800;9.534;2023-05-10T05:23:05;98083.16;;;14.85;46.17
63321;BME280;49449;48.800;9.534;2023-05-10T05:25:33;98083.69;;;14.87;46.30
63321;BME280;49449;48.800;9.534;2023-05-10T05:28:02;98074.91;;;14.87;46.22
63321;BME280;49449;48.800;9.534;2023-05-10T05:30:29;98086.34;;;14.92;45.93
63321;BME280;49449;48.800;9.534;2023-05-10T05:32:58;98083.41;;;14.94;46.11
63321;BME280;49449;48.800;9.534;2023-05-10T05:35:26;98094.06;;;14.99;46.08
63321;BME280;49449;48.800;9.534;2023-05-10T05:37:53;98096.16;;;15.02;45.76
63321;BME280;49449;48.800;9.534;2023-05-10T05:40:23;98092.72;;;14.96;45.96
63321;BME280;49449;48.800;9.534;2023-05-10T05:42:51;98089.53;;;15.00;45.58
63321;BME280;49449;48.800;9.534;2023-05-10T05:45:19;98092.44;;;15.03;46.08
63321;BME280;49449;48.800;9.534;2023-05-10T05:47:50;98090.31;;;15.05;46.06
63321;BME280;49449;48.800;9.534;2023-05-10T05:50:18;98099.63;;;15.08;45.80
63321;BME280;49449;48.800;9.534;2023-05-10T05:52:46;98097.75;;;15.08;46.21
63321;BME280;49449;48.800;9.534;2023-05-10T05:55:15;98097.75;;;15.08;46.07
63321;BME280;49449;48.800;9.534;2023-05-10T05:57:44;98098.28;;;15.10;46.06
63321;BME280;49449;48.800;9.534;2023-05-10T06:00:13;98101.47;;;15.12;46.00
63321;BME280;49449;48.800;9.534;2023-05-10T06:02:41;98112.38;;;15.16;45.59
63321;BME280;49449;48.800;9.534;2023-05-10T06:05:09;98110.25;;;15.18;45.59
63321;BME280;49449;48.800;9.534;2023-05-10T06:07:36;98112.63;;;15.20;45.46
63321;BME280;49449;48.800;9.534;2023-05-10T06:10:06;98109.44;;;15.12;45.40
63321;BME280;49449;48.800;9.534;2023-05-10T06:12:34;98109.19;;;15.19;45.47
63321;BME280;49449;48.800;9.534;2023-05-10T06:15:04;98111.84;;;15.24;45.43
63321;BME280;49449;48.800;9.534;2023-05-10T06:17:32;98112.38;;;15.11;44.90
63321;BME280;49449;48.800;9.534;2023-05-10T06:20:00;98116.91;;;15.05;45.72
63321;BME280;49449;48.800;9.534;2023-05-10T06:22:28;98119.31;;;15.12;45.00
63321;BME280;49449;48.800;9.534;2023-05-10T06:24:56;98121.97;;;15.12;45.36
63321;BME280;49449;48.800;9.534;2023-05-10T06:27:26;98116.66;;;15.12;45.23
63321;BME280;49449;48.800;9.534;2023-05-10T06:29:54;98119.84;;;15.04;45.39
63321;BME280;49449;48.800;9.534;2023-05-10T06:32:32;98118.25;;;15.08;44.77
63321;BME280;49449;48.800;9.534;2023-05-10T06:35:02;98124.09;;;15.10;45.01
63321;BME280;49449;48.800;9.534;2023-05-10T06:37:30;98124.63;;;15.12;44.72
63321;BME280;49449;48.800;9.534;2023-05-10T06:39:58;98127.56;;;15.15;45.29
63321;BME280;49449;48.800;9.534;2023-05-10T06:42:26;98121.97;;;15.07;44.71
63321;BME280;49449;48.800;9.534;2023-05-10T06:44:54;98128.91;;;15.08;45.10
63321;BME280;49449;48.800;9.534;2023-05-10T06:47:23;98127.28;;;15.12;44.73
63321;BME280;49449;48.800;9.534;2023-05-10T06:49:53;98130.47;;;15.14;44.75
63321;BME280;49449;48.800;9.534;2023-05-10T06:52:21;98124.88;;;15.05;44.82
63321;BME280;49449;48.800;9.534;2023-05-10T06:54:50;98132.06;;;15.00;45.01
63321;BME280;49449;48.800;9.534;2023-05-10T06:57:17;98139.53;;;15.03;44.60
63321;BME280;49449;48.800;9.534;2023-05-10T06:59:55;98136.34;;;15.01;44.61
63321;BME280;49449;48.800;9.534;2023-05-10T07:02:23;98136.59;;;14.94;44.87
63321;BME280;49449;48.800;9.534;2023-05-10T07:04:52;98135.25;;;14.91;44.53
63321;BME280;49449;48.800;9.534;2023-05-10T07:07:20;98134.47;;;14.91;44.23
63321;BME280;49449;48.800;9.534;2023-05-10T07:09:50;98129.41;;;14.94;45.92
63321;BME280;49449;48.800;9.534;2023-05-10T07:12:18;98124.88;;;15.00;45.02
63321;BME280;49449;48.800;9.534;2023-05-10T07:14:46;98127.53;;;14.95;44.56
63321;BME280;49449;48.800;9.534;2023-05-10T07:17:14;98137.13;;;14.96;44.56
63321;BME280;49449;48.800;9.534;2023-05-10T07:19:42;98141.38;;;14.97;45.00
63321;BME280;49449;48.800;9.534;2023-05-10T07:22:12;98138.19;;;14.90;44.85
63321;BME280;49449;48.800;9.534;2023-05-10T07:24:40;98141.66;;;14.95;45.27
63321;BME280;49449;48.800;9.534;2023-05-10T07:27:07;98148.31;;;15.03;45.05
63321;BME280;49449;48.800;9.534;2023-05-10T07:29:36;98143.78;;;14.99;45.17
63321;BME280;49449;48.800;9.534;2023-05-10T07:32:04;98146.44;;;14.93;44.99
63321;BME280;49449;48.800;9.534;2023-05-10T07:34:32;98148.28;;;14.67;45.25
63321;BME280;49449;48.800;9.534;2023-05-10T07:37:00;98159.19;;;14.66;45.44
63321;BME280;49449;48.800;9.534;2023-05-10T07:39:29;98154.63;;;14.56;46.39
63321;BME280;49449;48.800;9.534;2023-05-10T07:41:57;98158.63;;;14.48;45.87
63321;BME280;49449;48.800;9.534;2023-05-10T07:44:25;98158.28;;;14.39;44.86
63321;BME280;49449;48.800;9.534;2023-05-10T07:46:52;98157.50;;;14.44;46.08
63321;BME280;49449;48.800;9.534;2023-05-10T07:49:20;98149.03;;;14.47;45.91
63321;BME280;49449;48.800;9.534;2023-05-10T07:51:50;98152.78;;;14.67;46.02
63321;BME280;49449;48.800;9.534;2023-05-10T07:54:18;98154.63;;;14.51;44.55
63321;BME280;49449;48.800;9.534;2023-05-10T07:56:47;98161.28;;;14.48;45.22
63321;BME280;49449;48.800;9.534;2023-05-10T07:59:16;98155.41;;;14.56;45.55
63321;BME280;49449;48.800;9.534;2023-05-10T08:01:44;98150.16;;;14.77;45.09
63321;BME280;49449;48.800;9.534;2023-05-10T08:04:12;98149.91;;;14.99;44.94
63321;BME280;49449;48.800;9.534;2023-05-10T08:06:40;98153.06;;;15.22;44.76
63321;BME280;49449;48.800;9.534;2023-05-10T08:09:08;98158.16;;;15.39;44.60
63321;BME280;49449;48.800;9.534;2023-05-10T08:11:36;98157.06;;;15.50;44.14
63321;BME280;49449;48.800;9.534;2023-05-10T08:14:05;98153.84;;;15.58;43.83
63321;BME280;49449;48.800;9.534;2023-05-10T08:16:32;98156.25;;;15.65;44.02
63321;BME280;49449;48.800;9.534;2023-05-10T08:19:00;98157.81;;;15.71;43.70
63321;BME280;49449;48.800;9.534;2023-05-10T08:21:28;98163.19;;;15.50;44.69
63321;BME280;49449;48.800;9.534;2023-05-10T08:23:58;98156.84;;;15.31;45.18
63321;BME280;49449;48.800;9.534;2023-05-10T08:26:25;98162.94;;;15.37;44.84
63321;BME280;49449;48.800;9.534;2023-05-10T08:28:53;98158.41;;;15.37;44.33
63321;BME280;49449;48.800;9.534;2023-05-10T08:31:22;98167.44;;;15.00;44.57
63321;BME280;49449;48.800;9.534;2023-05-10T08:33:50;98161.91;;;15.32;44.35
63321;BME280;49449;48.800;9.534;2023-05-10T08:36:19;98159.19;;;15.53;43.99
63321;BME280;49449;48.800;9.534;2023-05-10T08:38:50;98163.16;;;15.66;42.93
63321;BME280;49449;48.800;9.534;2023-05-10T08:41:19;98162.94;;;15.57;42.91
63321;BME280;49449;48.800;9.534;2023-05-10T08:43:49;98160.53;;;15.61;42.91
63321;BME280;49449;48.800;9.534;2023-05-10T08:46:18;98156.00;;;15.51;43.00
63321;BME280;49449;48.800;9.534;2023-05-10T08:48:50;98164.00;;;15.41;43.24
63321;BME280;49449;48.800;9.534;2023-05-10T08:51:20;98163.97;;;15.66;42.80
63321;BME280;49449;48.800;9.534;2023-05-10T08:53:50;98159.94;;;15.79;42.53
63321;BME280;49449;48.800;9.534;2023-05-10T08:56:17;98167.13;;;15.84;42.56
63321;BME280;49449;48.800;9.534;2023-05-10T08:58:47;98171.09;;;15.86;42.60
63321;BME280;49449;48.800;9.534;2023-05-10T09:01:16;98175.34;;;15.93;42.74
63321;BME280;49449;48.800;9.534;2023-05-10T09:03:45;98173.19;;;16.00;42.73
63321;BME280;49449;48.800;9.534;2023-05-10T09:06:15;98181.44;;;16.03;42.47
63321;BME280;49449;48.800;9.534;2023-05-10T09:08:43;98184.66;;;16.05;41.88
63321;BME280;49449;48.800;9.534;2023-05-10T09:11:11;98182.22;;;16.04;41.74
63321;BME280;49449;48.800;9.534;2023-05-10T09:13:39;98184.91;;;16.04;41.56
63321;BME280;49449;48.800;9.534;2023-05-10T09:16:07;98188.34;;;16.04;41.83
63321;BME280;49449;48.800;9.534;2023-05-10T09:18:39;98193.44;;;16.06;41.71
63321;BME280;49449;48.800;9.534;2023-05-10T09:21:07;98189.44;;;16.08;41.86
63321;BME280;49449;48.800;9.534;2023-05-10T09:23:36;98196.88;;;16.12;41.56
63321;BME280;49449;48.800;9.534;2023-05-10T09:26:04;98202.72;;;16.19;41.17
63321;BME280;49449;48.800;9.534;2023-05-10T09:28:33;98200.09;;;16.14;40.83
63321;BME280;49449;48.800;9.534;2023-05-10T09:31:01;98201.41;;;16.11;40.69
63321;BME280;49449;48.800;9.534;2023-05-10T09:33:43;98194.00;;;15.98;40.52
63321;BME280;49449;48.800;9.534;2023-05-10T09:36:12;98195.56;;;16.04;40.76
63321;BME280;49449;48.800;9.534;2023-05-10T09:38:48;98199.84;;;16.05;40.15
63321;BME280;49449;48.800;9.534;2023-05-10T09:41:18;98197.97;;;16.05;40.27
63321;BME280;49449;48.800;9.534;2023-05-10T09:43:46;98205.97;;;15.95;40.02
63321;BME280;49449;48.800;9.534;2023-05-10T09:46:15;98201.41;;;16.01;39.68
63321;BME280;49449;48.800;9.534;2023-05-10T09:48:44;98206.22;;;15.99;39.98
63321;BME280;49449;48.800;9.534;2023-05-10T09:51:19;98199.00;;;16.04;40.23
63321;BME280;49449;48.800;9.534;2023-05-10T09:53:48;98201.94;;;16.03;39.81
63321;BME280;49449;48.800;9.534;2023-05-10T09:56:35;98201.41;;;16.11;40.21
63321;BME280;49449;48.800;9.534;2023-05-10T09:59:04;98204.34;;;16.15;39.09
63321;BME280;49449;48.800;9.534;2023-05-10T10:01:32;98198.19;;;16.24;39.89
63321;BME280;49449;48.800;9.534;2023-05-10T10:04:02;98198.94;;;16.30;39.37
63321;BME280;49449;48.800;9.534;2023-05-10T10:06:35;98205.59;;;16.33;39.44
63321;BME280;49449;48.800;9.534;2023-05-10T10:09:06;98198.91;;;16.40;39.13
63321;BME280;49449;48.800;9.534;2023-05-10T10:11:35;98195.66;;;16.48;39.47
63321;BME280;49449;48.800;9.534;2023-05-10T10:14:03;98203.66;;;16.48;38.65
63321;BME280;49449;48.800;9.534;2023-05-10T10:16:32;98197.75;;;16.57;37.95
63321;BME280;49449;48.800;9.534;2023-05-10T10:19:00;98199.91;;;16.55;39.04
63321;BME280;49449;48.800;9.534;2023-05-10T10:21:28;98199.13;;;16.54;37.73
63321;BME280;49449;48.800;9.534;2023-05-10T10:23:57;98200.66;;;16.60;38.67
63321;BME280;49449;48.800;9.534;2023-05-10T10:26:26;98198.56;;;16.52;37.88
63321;BME280;49449;48.800;9.534;2023-05-10T10:29:01;98197.47;;;16.58;38.24
63321;BME280;49449;48.800;9.534;2023-05-10T10:31:36;98195.09;;;16.57;38.64
63321;BME280;49449;48.800;9.534;2023-05-10T10:34:08;98201.22;;;16.52;38.13
63321;BME280;49449;48.800;9.534;2023-05-10T10:36:41;98192.16;;;16.53;37.68
63321;BME280;49449;48.800;9.534;2023-05-10T10:39:10;98195.84;;;16.62;38.25
63321;BME280;49449;48.800;9.534;2023-05-10T10:41:48;98191.03;;;16.64;37.80
63321;BME280;49449;48.800;9.534;2023-05-10T10:44:24;98189.78;;;16.52;38.79
63321;BME280;49449;48.800;9.534;2023-05-10T10:47:03;98193.78;;;16.54;38.67
63321;BME280;49449;48.800;9.534;2023-05-10T10:49:33;98192.94;;;16.59;38.46
63321;BME280;49449;48.800;9.534;2023-05-10T10:52:14;98194.84;;;16.53;38.09
63321;BME280;49449;48.800;9.534;2023-05-10T10:54:49;98204.75;;;16.42;38.59
63321;BME280;49449;48.800;9.534;2023-05-10T10:57:19;98199.19;;;16.39;39.16
63321;BME280;49449;48.800;9.534;2023-05-10T10:59:49;98207.44;;;16.37;39.57
63321;BME280;49449;48.800;9.534;2023-05-10T11:02:33;98208.81;;;16.30;38.00
63321;BME280;49449;48.800;9.534;2023-05-10T11:08:16;98206.19;;;16.24;38.02
63321;BME280;49449;48.800;9.534;2023-05-10T11:11:02;98206.72;;;16.21;37.93
63321;BME280;49449;48.800;9.534;2023-05-10T11:13:33;98204.59;;;16.13;37.77
63321;BME280;49449;48.800;9.534;2023-05-10T11:16:13;98214.44;;;16.23;38.93
63321;BME280;49449;48.800;9.534;2023-05-10T11:19:01;98212.03;;;16.21;38.48
63321;BME280;49449;48.800;9.534;2023-05-10T11:21:29;98203.75;;;16.28;38.33
63321;BME280;49449;48.800;9.534;2023-05-10T11:23:59;98203.19;;;16.31;37.76
63321;BME280;49449;48.800;9.534;2023-05-10T11:26:30;98202.66;;;16.34;39.66
63321;BME280;49449;48.800;9.534;2023-05-10T11:29:00;98194.44;;;16.25;39.16
63321;BME280;49449;48.800;9.534;2023-05-10T11:31:28;98196.81;;;16.32;38.94
63321;BME280;49449;48.800;9.534;2023-05-10T11:33:57;98200.00;;;16.29;38.77
63321;BME280;49449;48.800;9.534;2023-05-10T11:36:27;98203.53;;;16.14;39.31
63321;BME280;49449;48.800;9.534;2023-05-10T11:38:55;98202.19;;;16.22;37.95
63321;BME280;49449;48.800;9.534;2023-05-10T11:41:28;98213.91;;;16.26;37.46
63321;BME280;49449;48.800;9.534;2023-05-10T11:43:58;98202.41;;;16.31;36.94
63321;BME280;49449;48.800;9.534;2023-05-10T11:46:27;98208.22;;;16.43;36.66
63321;BME280;49449;48.800;9.534;2023-05-10T11:48:58;98211.38;;;16.50;37.13
63321;BME280;49449;48.800;9.534;2023-05-10T11:51:28;98216.16;;;16.53;37.75
63321;BME280;49449;48.800;9.534;2023-05-10T11:53:56;98215.66;;;16.51;37.19
63321;BME280;49449;48.800;9.534;2023-05-10T11:56:24;98221.22;;;16.55;37.43
63321;BME280;49449;48.800;9.534;2023-05-10T11:58:53;98222.53;;;16.57;37.00
63321;BME280;49449;48.800;9.534;2023-05-10T12:01:22;98223.66;;;16.46;36.77
63321;BME280;49449;48.800;9.534;2023-05-10T12:03:53;98223.16;;;16.44;37.03
63321;BME280;49449;48.800;9.534;2023-05-10T12:06:21;98221.53;;;16.43;37.26
63321;BME280;49449;48.800;9.534;2023-05-10T12:08:49;98232.22;;;16.43;37.47
63321;BME280;49449;48.800;9.534;2023-05-10T12:11:20;98233.81;;;16.44;37.13
63321;BME280;49449;48.800;9.534;2023-05-10T12:13:48;98248.72;;;16.45;37.58
63321;BME280;49449;48.800;9.534;2023-05-10T12:16:17;98243.66;;;16.43;37.00
63321;BME280;49449;48.800;9.534;2023-05-10T12:18:48;98244.50;;;16.39;37.18
63321;BME280;49449;48.800;9.534;2023-05-10T12:21:20;98259.41;;;16.40;37.33
63321;BME280;49449;48.800;9.534;2023-05-10T12:23:49;98252.78;;;16.32;38.72
63321;BME280;49449;48.800;9.534;2023-05-10T12:26:17;98260.00;;;16.32;36.88
63321;BME280;49449;48.800;9.534;2023-05-10T12:28:45;98264.06;;;16.08;36.32
63321;BME280;49449;48.800;9.534;2023-05-10T12:31:13;98262.69;;;16.01;36.35
63321;BME280;49449;48.800;9.534;2023-05-10T12:33:42;98263.00;;;15.84;36.29
63321;BME280;49449;48.800;9.534;2023-05-10T12:36:12;98265.94;;;15.77;36.01
63321;BME280;49449;48.800;9.534;2023-05-10T12:38:42;98268.34;;;15.53;36.21
63321;BME280;49449;48.800;9.534;2023-05-10T12:41:13;98277.66;;;15.35;36.86
63321;BME280;49449;48.800;9.534;2023-05-10T12:43:41;98273.41;;;15.29;38.29
63321;BME280;49449;48.800;9.534;2023-05-10T12:46:10;98279.75;;;15.23;38.85
63321;BME280;49449;48.800;9.534;2023-05-10T12:48:40;98279.75;;;15.23;39.13
63321;BME280;49449;48.800;9.534;2023-05-10T12:51:08;98285.59;;;15.04;39.37
63321;BME280;49449;48.800;9.534;2023-05-10T12:53:38;98282.38;;;15.12;39.22
63321;BME280;49449;48.800;9.534;2023-05-10T12:56:09;98285.03;;;15.02;39.30
63321;BME280;49449;48.800;9.534;2023-05-10T12:58:38;98291.44;;;15.11;39.44
63321;BME280;49449;48.800;9.534;2023-05-10T13:01:06;98291.38;;;14.91;39.64
63321;BME280;49449;48.800;9.534;2023-05-10T13:03:34;98282.34;;;14.97;40.01
63321;BME280;49449;48.800;9.534;2023-05-10T13:06:02;98287.94;;;14.85;39.30
63321;BME280;49449;48.800;9.534;2023-05-10T13:08:30;98283.91;;;14.77;38.08
63321;BME280;49449;48.800;9.534;2023-05-10T13:11:00;98284.13;;;14.66;39.49
63321;BME280;49449;48.800;9.534;2023-05-10T13:13:29;98281.50;;;14.81;39.24
63321;BME280;49449;48.800;9.534;2023-05-10T13:15:57;98281.81;;;14.90;39.05
63321;BME280;49449;48.800;9.534;2023-05-10T13:18:25;98279.41;;;14.93;38.95
63321;BME280;49449;48.800;9.534;2023-05-10T13:20:53;98284.25;;;15.07;39.70